Time;durP1;ratioP1;P1;durP2;ratioP2;P2;SDS_P1;SDS_P2;PMS_P1;PMS_P2;Temp;Humidity;BMP_temperature;BMP_pressure;BME280_temperature;BME280_humidity;BME280_pressure;Samples;Min_cycle;Max_cycle;Signal;HPM_P1;HPM_P2
2021/08/22 00:01:34;;;;;;;1.63;1.53;;;24.70;65.10;;;;;;5105545;28;20195;-66
2021/08/22 00:04:04;;;;;;;2.37;2.00;;;24.80;65.20;;;;;;5090033;28;20239;-66
2021/08/22 00:06:34;;;;;;;1.53;1.43;;;24.70;65.00;;;;;;5102269;28;20199;-67
2021/08/22 00:09:06;;;;;;;2.53;1.80;;;24.80;64.90;;;;;;5101877;28;20200;-66
2021/08/22 00:11:38;;;;;;;1.90;1.47;;;24.70;64.90;;;;;;5098408;27;20670;-66
2021/08/22 00:14:09;;;;;;;1.87;1.70;;;24.70;64.80;;;;;;5105977;28;20200;-66
2021/08/22 00:16:40;;;;;;;1.80;1.50;;;24.70;64.90;;;;;;5099675;28;20544;-66
2021/08/22 00:19:11;;;;;;;3.00;1.80;;;24.70;65.00;;;;;;5082801;28;20189;-66
2021/08/22 00:21:42;;;;;;;1.90;1.57;;;24.70;64.80;;;;;;5099689;28;20238;-66
2021/08/22 00:24:13;;;;;;;1.73;1.50;;;24.70;64.80;;;;;;5098552;28;20188;-66
2021/08/22 00:26:45;;;;;;;1.80;1.70;;;24.70;64.90;;;;;;5102525;28;20220;-66
2021/08/22 00:29:15;;;;;;;1.63;1.43;;;24.70;65.00;;;;;;5109815;27;20213;-66
2021/08/22 00:31:46;;;;;;;1.50;1.40;;;24.70;64.90;;;;;;5104749;28;20204;-66
2021/08/22 00:34:18;;;;;;;2.20;1.50;;;24.70;64.90;;;;;;5103898;28;20208;-66
2021/08/22 00:36:49;;;;;;;2.03;1.73;;;24.70;64.90;;;;;;5103901;28;20630;-66
2021/08/22 00:39:22;;;;;;;2.50;1.33;;;24.70;65.00;;;;;;5077578;28;20239;-66
2021/08/22 00:41:52;;;;;;;1.93;1.37;;;24.70;65.60;;;;;;5088457;28;20192;-65
2021/08/22 00:44:23;;;;;;;1.40;1.23;;;24.70;65.00;;;;;;5101422;28;20209;-66
2021/08/22 00:46:56;;;;;;;1.80;1.43;;;24.70;65.00;;;;;;5081282;28;20193;-65
2021/08/22 00:49:28;;;;;;;2.13;1.40;;;24.70;64.80;;;;;;5066961;28;20204;-66
2021/08/22 00:51:59;;;;;;;1.60;1.50;;;24.70;64.90;;;;;;5081701;28;20226;-66
2021/08/22 00:54:33;;;;;;;1.73;1.40;;;24.70;64.80;;;;;;5102634;28;20234;-66
2021/08/22 00:57:01;;;;;;;1.40;1.30;;;24.70;65.00;;;;;;5102830;28;20201;-66
2021/08/22 00:59:37;;;;;;;1.50;1.40;;;24.70;64.90;;;;;;5102078;28;20587;-66
2021/08/22 01:02:25;;;;;;;1.80;1.33;;;24.70;64.80;;;;;;5081272;28;20614;-67
2021/08/22 01:05:10;;;;;;;1.40;1.30;;;24.70;64.90;;;;;;5105290;28;20199;-66
2021/08/22 01:07:50;;;;;;;1.43;1.30;;;24.60;64.90;;;;;;5089259;28;20230;-66
2021/08/22 01:10:25;;;;;;;2.03;1.63;;;24.60;64.90;;;;;;5102682;27;20284;-66
2021/08/22 01:13:05;;;;;;;1.73;1.30;;;24.70;65.00;;;;;;5079520;28;20276;-67
2021/08/22 01:15:38;;;;;;;1.90;1.30;;;24.60;64.90;;;;;;5096152;28;20533;-67
2021/08/22 01:18:11;;;;;;;1.60;1.50;;;24.70;65.10;;;;;;5085655;28;20662;-66
2021/08/22 01:21:01;;;;;;;4.17;1.43;;;24.60;64.90;;;;;;5090971;28;20223;-66
2021/08/22 01:23:30;;;;;;;2.27;1.40;;;24.70;65.00;;;;;;5104195;28;20220;-66
2021/08/22 01:26:07;;;;;;;1.47;1.30;;;24.60;64.90;;;;;;5078371;28;20665;-66
2021/08/22 01:28:40;;;;;;;1.30;1.20;;;24.60;64.90;;;;;;5105352;28;20197;-66
2021/08/22 01:31:12;;;;;;;1.50;1.40;;;24.60;65.00;;;;;;5049809;28;20207;-66
2021/08/22 01:33:42;;;;;;;1.77;1.30;;;24.60;65.00;;;;;;5084901;28;20197;-66
2021/08/22 01:36:15;;;;;;;1.30;1.20;;;24.60;65.00;;;;;;5098601;28;20707;-67
2021/08/22 01:39:11;;;;;;;1.20;1.10;;;24.60;65.00;;;;;;5081100;28;20200;-66
2021/08/22 01:41:43;;;;;;;1.30;1.20;;;24.60;64.90;;;;;;5084897;28;20196;-66
2021/08/22 01:44:19;;;;;;;1.33;1.23;;;24.60;65.00;;;;;;5076692;28;20189;-66
2021/08/22 01:46:49;;;;;;;1.63;1.30;;;24.60;65.00;;;;;;5088113;28;20200;-66
2021/08/22 01:49:26;;;;;;;1.83;1.23;;;24.60;65.00;;;;;;5072750;28;20205;-66
2021/08/22 01:52:00;;;;;;;1.47;1.07;;;24.60;65.00;;;;;;5108503;28;20211;-66
2021/08/22 01:54:29;;;;;;;1.30;1.20;;;24.60;65.00;;;;;;5083576;28;20192;-66
2021/08/22 01:57:02;;;;;;;1.93;1.20;;;24.60;65.00;;;;;;5083960;28;20197;-66
2021/08/22 01:59:43;;;;;;;1.57;1.40;;;24.60;65.00;;;;;;5096823;28;20209;-66
2021/08/22 02:02:25;;;;;;;1.43;1.23;;;24.60;65.00;;;;;;5106264;28;20219;-66
2021/08/22 02:05:06;;;;;;;1.40;1.30;;;24.60;65.10;;;;;;5103506;28;20416;-65
2021/08/22 02:07:36;;;;;;;1.40;1.30;;;24.60;65.00;;;;;;5094593;28;20195;-67
2021/08/22 02:10:15;;;;;;;1.47;1.33;;;24.60;65.10;;;;;;5102986;28;20208;-65
2021/08/22 02:12:47;;;;;;;1.30;1.20;;;24.60;65.00;;;;;;5091250;28;20216;-65
2021/08/22 02:15:30;;;;;;;1.73;1.27;;;24.60;65.10;;;;;;5088942;28;20305;-66
2021/08/22 02:18:06;;;;;;;1.23;1.13;;;24.60;65.10;;;;;;5080429;28;20264;-66
2021/08/22 02:20:46;;;;;;;1.47;1.37;;;24.60;65.20;;;;;;5084239;28;20290;-66
2021/08/22 02:23:22;;;;;;;2.00;1.67;;;24.50;65.10;;;;;;5079809;28;20226;-66
2021/08/22 02:25:53;;;;;;;1.43;1.30;;;24.50;65.10;;;;;;5098190;28;20197;-66
2021/08/22 02:28:25;;;;;;;1.67;1.57;;;24.50;65.20;;;;;;5100319;28;20208;-66
2021/08/22 02:30:56;;;;;;;1.47;1.20;;;24.50;65.20;;;;;;5104959;28;20237;-66
2021/08/22 02:33:31;;;;;;;1.90;1.63;;;24.50;65.90;;;;;;5075800;28;20289;-66
2021/08/22 02:36:02;;;;;;;2.10;1.67;;;24.50;65.20;;;;;;5102769;28;20193;-66
2021/08/22 02:38:32;;;;;;;1.90;1.80;;;24.50;65.20;;;;;;5106837;28;20211;-66
2021/08/22 02:41:05;;;;;;;1.80;1.70;;;24.50;65.20;;;;;;5109921;27;20208;-65
2021/08/22 02:43:34;;;;;;;2.40;1.93;;;24.50;65.20;;;;;;5107942;28;20593;-65
2021/08/22 02:46:05;;;;;;;2.07;1.43;;;24.50;65.20;;;;;;5108533;28;20209;-66
2021/08/22 02:48:35;;;;;;;1.70;1.50;;;24.50;65.10;;;;;;5105427;28;20213;-66
2021/08/22 02:51:05;;;;;;;1.90;1.80;;;24.50;65.10;;;;;;5081416;28;20291;-67
2021/08/22 02:53:36;;;;;;;2.00;1.90;;;24.50;65.10;;;;;;5066344;28;20201;-66
2021/08/22 02:56:07;;;;;;;1.53;1.30;;;24.50;65.10;;;;;;5108591;28;20208;-66
2021/08/22 02:58:38;;;;;;;1.83;1.73;;;24.50;65.10;;;;;;5086866;28;20211;-66
2021/08/22 03:01:11;;;;;;;1.97;1.77;;;24.50;65.00;;;;;;5111003;28;20700;-67
2021/08/22 03:03:43;;;;;;;2.17;1.97;;;24.50;65.00;;;;;;5097600;28;20200;-68
2021/08/22 03:06:17;;;;;;;2.87;2.13;;;24.50;65.00;;;;;;5102388;27;20661;-67
2021/08/22 03:08:49;;;;;;;2.20;2.00;;;24.50;65.00;;;;;;5096917;28;20211;-67
2021/08/22 03:11:20;;;;;;;2.10;1.90;;;24.50;65.00;;;;;;5107724;28;20205;-67
2021/08/22 03:13:51;;;;;;;2.30;1.93;;;24.50;65.00;;;;;;5103416;28;20269;-67
2021/08/22 03:16:23;;;;;;;2.20;2.00;;;24.50;65.00;;;;;;5110012;28;20887;-67
2021/08/22 03:18:53;;;;;;;2.57;2.20;;;24.40;64.80;;;;;;5096019;28;20216;-67
2021/08/22 03:21:23;;;;;;;2.00;1.80;;;24.40;64.90;;;;;;5105918;28;20212;-67
2021/08/22 03:23:53;;;;;;;2.13;1.97;;;24.50;64.90;;;;;;5097892;28;20188;-67
2021/08/22 03:26:35;;;;;;;1.90;1.80;;;24.40;64.90;;;;;;5100863;28;20284;-67
2021/08/22 03:29:17;;;;;;;2.17;1.97;;;24.50;64.80;;;;;;5094641;28;20279;-67
2021/08/22 03:31:49;;;;;;;2.63;2.40;;;24.40;64.80;;;;;;5098481;28;20258;-67
2021/08/22 03:34:20;;;;;;;2.07;1.90;;;24.40;64.80;;;;;;5102384;28;20544;-67
2021/08/22 03:36:48;;;;;;;2.53;2.33;;;24.40;64.80;;;;;;5103034;28;20195;-67
2021/08/22 03:39:20;;;;;;;2.50;2.30;;;24.40;64.80;;;;;;5088307;28;20836;-67
2021/08/22 03:41:53;;;;;;;2.47;2.27;;;24.40;64.80;;;;;;5098521;28;20311;-67
2021/08/22 03:44:23;;;;;;;2.60;2.40;;;24.40;64.80;;;;;;5109573;28;20208;-65
2021/08/22 03:46:51;;;;;;;2.87;2.27;;;24.40;64.80;;;;;;5082651;28;20202;-66
2021/08/22 03:49:21;;;;;;;2.60;2.40;;;24.40;64.80;;;;;;5108820;28;20215;-65
2021/08/22 03:51:54;;;;;;;2.50;2.30;;;24.40;64.80;;;;;;5104443;28;20545;-65
2021/08/22 03:54:23;;;;;;;3.03;2.73;;;24.40;64.80;;;;;;5107100;28;20585;-65
2021/08/22 03:56:50;;;;;;;2.80;2.60;;;24.40;65.40;;;;;;5111618;28;20196;-67
2021/08/22 03:59:20;;;;;;;2.90;2.70;;;24.40;64.80;;;;;;5105606;28;20819;-67
2021/08/22 04:01:47;;;;;;;2.90;2.50;;;24.40;64.70;;;;;;5080629;28;20247;-67
2021/08/22 04:04:20;;;;;;;2.27;2.07;;;24.40;64.80;;;;;;5104270;28;20245;-67
2021/08/22 04:06:49;;;;;;;2.83;2.63;;;24.40;64.80;;;;;;5102227;28;20206;-67
2021/08/22 04:09:21;;;;;;;3.03;2.73;;;24.40;64.70;;;;;;5099546;28;20177;-67
2021/08/22 04:11:55;;;;;;;2.60;2.40;;;24.40;64.70;;;;;;5105558;28;20204;-68
2021/08/22 04:14:31;;;;;;;3.30;2.60;;;24.40;64.70;;;;;;5079620;28;20208;-66
2021/08/22 04:17:02;;;;;;;3.37;3.07;;;24.40;64.70;;;;;;5106219;28;20337;-67
2021/08/22 04:19:34;;;;;;;3.20;3.00;;;24.30;64.70;;;;;;5092867;28;20204;-67
2021/08/22 04:22:13;;;;;;;3.53;3.23;;;24.40;64.70;;;;;;5106987;27;20224;-67
2021/08/22 04:24:44;;;;;;;2.80;2.60;;;24.40;64.70;;;;;;5106613;27;20656;-68
2021/08/22 04:27:14;;;;;;;3.60;3.30;;;24.40;64.70;;;;;;5061967;28;20193;-67
2021/08/22 04:29:46;;;;;;;3.53;3.23;;;24.40;64.70;;;;;;5086860;28;20200;-66
2021/08/22 04:32:21;;;;;;;3.57;3.27;;;24.40;64.70;;;;;;5109184;27;20212;-66
2021/08/22 04:34:53;;;;;;;4.17;3.40;;;24.40;64.70;;;;;;5110101;27;20212;-65
2021/08/22 04:37:24;;;;;;;4.13;3.70;;;24.30;64.60;;;;;;5112343;27;20729;-66
2021/08/22 04:39:55;;;;;;;4.00;3.70;;;24.30;64.60;;;;;;5104691;27;20308;-66
2021/08/22 04:42:25;;;;;;;4.07;3.70;;;24.30;64.60;;;;;;5063190;27;20233;-66
2021/08/22 04:44:58;;;;;;;4.00;3.70;;;24.30;64.60;;;;;;5095379;28;20279;-66
2021/08/22 04:47:28;;;;;;;4.43;4.07;;;24.30;64.60;;;;;;5106519;28;20279;-66
2021/08/22 04:50:00;;;;;;;4.20;3.80;;;24.30;64.60;;;;;;5090447;27;20622;-66
2021/08/22 04:52:41;;;;;;;4.63;4.23;;;24.30;64.60;;;;;;5118074;27;20191;-66
2021/08/22 04:55:14;;;;;;;4.90;4.03;;;24.30;64.60;;;;;;5107588;28;20209;-66
2021/08/22 04:58:11;;;;;;;4.70;4.30;;;24.30;64.60;;;;;;5081904;28;20208;-67
2021/08/22 05:00:42;;;;;;;4.87;4.47;;;24.30;64.60;;;;;;5110794;27;20203;-66
2021/08/22 05:03:11;;;;;;;4.93;4.50;;;24.30;64.60;;;;;;5091025;28;20272;-66
2021/08/22 05:05:42;;;;;;;4.97;4.57;;;24.30;64.60;;;;;;5110472;27;20522;-66
2021/08/22 05:08:09;;;;;;;7.20;5.17;;;24.30;64.60;;;;;;5111344;27;20287;-66
2021/08/22 05:10:38;;;;;;;4.87;4.47;;;24.30;64.60;;;;;;5096391;28;20195;-66
2021/08/22 05:13:08;;;;;;;4.70;4.30;;;24.30;64.60;;;;;;5100295;27;20210;-67
2021/08/22 05:15:37;;;;;;;5.67;4.57;;;24.30;64.60;;;;;;5095615;27;20193;-67
2021/08/22 05:18:11;;;;;;;5.63;4.87;;;24.30;64.50;;;;;;5082640;28;20531;-67
2021/08/22 05:20:41;;;;;;;4.93;4.53;;;24.30;64.60;;;;;;5100098;27;20211;-67
2021/08/22 05:23:11;;;;;;;5.70;4.90;;;24.30;64.50;;;;;;5103275;28;20232;-67
2021/08/22 05:25:39;;;;;;;5.63;5.13;;;24.30;64.50;;;;;;5086369;28;20225;-66
2021/08/22 05:28:09;;;;;;;5.90;5.40;;;24.30;64.60;;;;;;5102788;28;20209;-66
2021/08/22 05:30:38;;;;;;;5.70;5.20;;;24.30;64.50;;;;;;5078840;28;20201;-67
2021/08/22 05:33:09;;;;;;;6.23;5.60;;;24.30;64.50;;;;;;5100438;28;20216;-67
2021/08/22 05:35:39;;;;;;;6.10;5.60;;;24.30;64.50;;;;;;5080420;28;20204;-67
2021/08/22 05:38:09;;;;;;;6.27;5.77;;;24.30;64.50;;;;;;5099056;28;20585;-67
2021/08/22 05:40:39;;;;;;;5.83;5.30;;;24.30;64.50;;;;;;5101885;28;20228;-67
2021/08/22 05:43:10;;;;;;;5.90;5.40;;;24.30;64.50;;;;;;5096557;28;20217;-67
2021/08/22 05:45:41;;;;;;;6.80;6.10;;;24.30;64.50;;;;;;5103847;28;20207;-67
2021/08/22 05:48:12;;;;;;;7.17;6.07;;;24.30;64.50;;;;;;5095427;28;20209;-66
2021/08/22 05:50:44;;;;;;;6.53;6.00;;;24.30;64.40;;;;;;5087132;28;20204;-67
2021/08/22 05:53:13;;;;;;;6.20;5.70;;;24.30;64.50;;;;;;5098310;28;20207;-67
2021/08/22 05:55:44;;;;;;;6.93;6.33;;;24.30;64.40;;;;;;5103743;28;20223;-67
2021/08/22 05:58:13;;;;;;;6.93;6.37;;;24.30;64.40;;;;;;5101485;28;20200;-67
2021/08/22 06:00:44;;;;;;;7.03;6.40;;;24.20;64.30;;;;;;5103973;28;20224;-67
2021/08/22 06:03:14;;;;;;;6.50;5.90;;;24.30;64.40;;;;;;5092609;28;20197;-67
2021/08/22 06:05:46;;;;;;;6.40;5.83;;;24.30;64.40;;;;;;5102810;28;20285;-67
2021/08/22 06:08:19;;;;;;;6.73;6.13;;;24.30;64.40;;;;;;5095054;28;20214;-67
2021/08/22 06:10:48;;;;;;;6.70;6.10;;;24.30;64.40;;;;;;5073804;28;20284;-67
2021/08/22 06:13:18;;;;;;;7.57;6.20;;;24.30;64.30;;;;;;5103283;28;20211;-67
2021/08/22 06:15:46;;;;;;;7.30;6.57;;;24.30;64.30;;;;;;5103283;28;20203;-66
2021/08/22 06:18:17;;;;;;;6.60;6.00;;;24.30;64.30;;;;;;5103937;28;20188;-66
2021/08/22 06:20:49;;;;;;;6.63;6.13;;;24.20;64.30;;;;;;5102080;28;20200;-67
2021/08/22 06:23:18;;;;;;;7.03;6.43;;;24.30;64.30;;;;;;5087596;28;20684;-66
2021/08/22 06:25:52;;;;;;;6.70;6.10;;;24.30;64.30;;;;;;5101915;27;20223;-66
2021/08/22 06:28:23;;;;;;;6.63;6.03;;;24.30;64.30;;;;;;5106398;28;20200;-67
2021/08/22 06:30:52;;;;;;;7.30;6.60;;;24.30;64.30;;;;;;5104640;28;20200;-66
2021/08/22 06:33:22;;;;;;;6.60;6.00;;;24.30;64.30;;;;;;5107500;28;20232;-67
2021/08/22 06:36:02;;;;;;;7.40;6.57;;;24.30;64.30;;;;;;5096898;28;20196;-67
2021/08/22 06:38:32;;;;;;;6.70;6.20;;;24.30;64.30;;;;;;5090175;28;20210;-66
2021/08/22 06:41:04;;;;;;;6.90;6.30;;;24.30;64.20;;;;;;5109888;28;20223;-66
2021/08/22 06:43:34;;;;;;;6.20;5.70;;;24.30;64.20;;;;;;5104088;28;20193;-66
2021/08/22 06:46:05;;;;;;;6.27;5.77;;;24.30;64.30;;;;;;5084028;28;20619;-67
2021/08/22 06:48:36;;;;;;;6.37;5.87;;;24.30;64.20;;;;;;5096988;28;20212;-66
2021/08/22 06:51:05;;;;;;;6.23;5.63;;;24.30;64.20;;;;;;5102029;28;20204;-66
2021/08/22 06:53:37;;;;;;;6.63;5.60;;;24.30;64.10;;;;;;5095019;28;20682;-66
2021/08/22 06:56:08;;;;;;;6.20;5.70;;;24.30;64.30;;;;;;5086850;28;20261;-67
2021/08/22 06:58:38;;;;;;;6.27;5.77;;;24.30;64.20;;;;;;5080340;28;20209;-67
2021/08/22 07:01:08;;;;;;;6.37;5.87;;;24.30;64.10;;;;;;5103372;27;20281;-67
2021/08/22 07:03:43;;;;;;;5.73;5.33;;;24.20;64.10;;;;;;5098542;28;20527;-66
2021/08/22 07:06:12;;;;;;;5.87;5.37;;;24.30;64.20;;;;;;5090861;28;20200;-67
2021/08/22 07:08:41;;;;;;;5.90;5.47;;;24.20;64.10;;;;;;5097277;27;20193;-67
2021/08/22 07:11:13;;;;;;;5.47;4.97;;;24.30;64.20;;;;;;5106270;28;20200;-66
2021/08/22 07:13:43;;;;;;;6.40;5.80;;;24.30;64.10;;;;;;5077189;28;20197;-67
2021/08/22 07:16:14;;;;;;;6.00;5.50;;;24.30;64.10;;;;;;5085557;28;20189;-67
2021/08/22 07:18:44;;;;;;;5.73;5.23;;;24.30;64.30;;;;;;5080317;28;20258;-67
2021/08/22 07:21:15;;;;;;;5.50;5.10;;;24.30;64.10;;;;;;5102250;28;20217;-67
2021/08/22 07:23:57;;;;;;;5.73;5.23;;;24.30;64.10;;;;;;5103720;28;20315;-67
2021/08/22 07:26:28;;;;;;;6.20;5.60;;;24.30;64.10;;;;;;5101804;28;20225;-67
2021/08/22 07:28:56;;;;;;;6.43;5.33;;;24.30;64.30;;;;;;5085221;28;20667;-68
2021/08/22 07:31:28;;;;;;;5.90;5.30;;;24.30;64.30;;;;;;5105564;28;20220;-67
2021/08/22 07:33:59;;;;;;;6.53;5.93;;;24.30;64.30;;;;;;5104703;28;20232;-67
2021/08/22 07:36:30;;;;;;;5.70;5.13;;;24.30;64.20;;;;;;5104242;28;20530;-67
2021/08/22 07:39:02;;;;;;;7.77;5.80;;;24.30;64.30;;;;;;5104290;28;20213;-68
2021/08/22 07:41:32;;;;;;;5.23;4.83;;;24.30;64.30;;;;;;5109366;28;20557;-68
2021/08/22 07:44:04;;;;;;;5.50;5.00;;;24.30;64.10;;;;;;5090534;28;20255;-69
2021/08/22 07:46:33;;;;;;;7.40;5.63;;;24.30;64.10;;;;;;5103754;28;20215;-68
2021/08/22 07:49:06;;;;;;;5.67;5.07;;;24.30;64.20;;;;;;5105803;28;20192;-68
2021/08/22 07:51:36;;;;;;;5.87;5.23;;;24.30;64.20;;;;;;5103848;28;20211;-68
2021/08/22 07:54:08;;;;;;;5.60;5.00;;;24.30;64.20;;;;;;5108429;28;20250;-67
2021/08/22 07:56:43;;;;;;;5.67;5.23;;;24.30;64.20;;;;;;5091969;28;20193;-68
2021/08/22 07:59:12;;;;;;;6.00;5.43;;;24.30;64.30;;;;;;5069226;28;20213;-67
2021/08/22 08:01:45;;;;;;;5.80;5.30;;;24.30;64.20;;;;;;5102500;27;20251;-68
2021/08/22 08:04:15;;;;;;;5.30;4.80;;;24.30;64.20;;;;;;5097329;28;20523;-69
2021/08/22 08:06:48;;;;;;;5.93;5.10;;;24.30;64.50;;;;;;5102126;28;20205;-71
2021/08/22 08:09:18;;;;;;;7.53;4.70;;;24.30;64.30;;;;;;5097467;28;20201;-68
2021/08/22 08:11:49;;;;;;;7.77;5.27;;;24.30;64.70;;;;;;5102122;28;20257;-68
2021/08/22 08:14:16;;;;;;;6.93;4.83;;;24.30;64.80;;;;;;5098999;28;20188;-68
2021/08/22 08:16:47;;;;;;;6.03;5.10;;;24.30;64.80;;;;;;5106092;28;20524;-68
2021/08/22 08:19:17;;;;;;;7.87;4.77;;;24.30;64.90;;;;;;5075651;28;20208;-68
2021/08/22 08:21:47;;;;;;;5.67;4.53;;;24.30;65.00;;;;;;5107608;28;20311;-68
2021/08/22 08:24:18;;;;;;;6.67;5.10;;;24.30;65.20;;;;;;5094309;28;20185;-68
2021/08/22 08:26:48;;;;;;;5.33;4.63;;;24.30;65.50;;;;;;5101410;28;20208;-68
2021/08/22 08:29:19;;;;;;;4.73;4.13;;;24.40;65.60;;;;;;5100692;28;20189;-69
2021/08/22 08:31:52;;;;;;;6.37;4.27;;;24.40;65.70;;;;;;5105003;28;20200;-69
2021/08/22 08:34:24;;;;;;;6.93;4.60;;;24.40;65.60;;;;;;5102893;28;20225;-70
2021/08/22 08:36:54;;;;;;;6.50;4.47;;;24.30;65.70;;;;;;5105092;28;20197;-69
2021/08/22 08:39:29;;;;;;;4.53;4.13;;;24.40;65.90;;;;;;5101350;28;20761;-71
2021/08/22 08:42:39;;;;;;;6.63;4.70;;;24.40;65.80;;;;;;5110420;27;20247;-71
2021/08/22 08:45:34;;;;;;;5.33;4.50;;;24.40;65.60;;;;;;5096968;27;20657;-69
2021/08/22 08:48:05;;;;;;;4.70;3.90;;;24.40;65.30;;;;;;5106982;27;20211;-68
2021/08/22 08:50:50;;;;;;;4.77;4.37;;;24.30;65.60;;;;;;5085665;28;20249;-67
2021/08/22 08:53:47;;;;;;;4.43;4.00;;;24.30;65.20;;;;;;5103891;27;20200;-68
2021/08/22 08:56:27;;;;;;;4.30;3.90;;;24.30;65.10;;;;;;5102461;27;20209;-69
2021/08/22 08:58:55;;;;;;;4.03;3.57;;;24.30;65.10;;;;;;5105423;27;20239;-70
2021/08/22 09:01:27;;;;;;;4.40;3.70;;;24.30;65.10;;;;;;5099882;27;20217;-71
2021/08/22 09:04:25;;;;;;;3.80;3.10;;;24.30;65.00;;;;;;5082781;27;20207;-70
2021/08/22 09:07:23;;;;;;;5.30;3.27;;;24.30;64.80;;;;;;5096521;28;20200;-70
2021/08/22 09:10:21;;;;;;;4.90;3.13;;;24.30;65.10;;;;;;5095741;28;20227;-70
2021/08/22 09:13:27;;;;;;;6.03;3.60;;;24.40;64.60;;;;;;5099041;28;20231;-67
2021/08/22 09:16:25;;;;;;;3.40;3.10;;;24.30;64.20;;;;;;5093322;28;23505;-69
2021/08/22 09:19:14;;;;;;;4.40;3.30;;;24.40;63.90;;;;;;5101038;28;20265;-68
2021/08/22 09:22:21;;;;;;;4.93;2.90;;;24.40;63.90;;;;;;5098654;27;20242;-68
2021/08/22 09:25:25;;;;;;;3.63;3.07;;;24.30;63.90;;;;;;5100050;28;20196;-67
2021/08/22 09:28:32;;;;;;;3.63;3.13;;;24.30;63.60;;;;;;5098459;27;20185;-70
2021/08/22 09:31:35;;;;;;;2.77;2.50;;;24.40;63.30;;;;;;5100026;28;20216;-71
2021/08/22 09:34:31;;;;;;;4.03;2.80;;;24.40;63.30;;;;;;5105118;28;20385;-72
2021/08/22 09:37:06;;;;;;;3.30;3.00;;;24.40;63.30;;;;;;5098914;28;20240;-72
2021/08/22 09:40:14;;;;;;;2.80;2.53;;;24.40;63.00;;;;;;5102049;28;20739;-72
2021/08/22 09:43:20;;;;;;;4.77;2.80;;;24.40;62.80;;;;;;5102205;28;20212;-71
2021/08/22 09:46:26;;;;;;;3.60;2.80;;;24.40;62.40;;;;;;5099598;28;20192;-70
2021/08/22 09:49:39;;;;;;;6.00;2.60;;;24.40;63.10;;;;;;5101941;28;20740;-70
2021/08/22 09:52:37;;;;;;;3.10;2.77;;;24.40;63.30;;;;;;5087536;28;20231;-67
2021/08/22 09:56:02;;;;;;;4.33;2.80;;;24.40;63.40;;;;;;5102922;28;20200;-68
2021/08/22 09:58:51;;;;;;;3.73;2.93;;;24.40;63.50;;;;;;5035956;28;20377;-69
2021/08/22 10:01:32;;;;;;;6.43;3.20;;;24.40;63.40;;;;;;5103094;28;20279;-68
2021/08/22 10:04:39;;;;;;;3.53;2.60;;;24.40;63.30;;;;;;5085923;28;20196;-67
2021/08/22 10:07:45;;;;;;;5.83;2.97;;;24.40;63.30;;;;;;5093403;28;20230;-70
2021/08/22 10:10:35;;;;;;;5.87;2.90;;;24.40;63.60;;;;;;5088878;28;20201;-70
2021/08/22 10:13:09;;;;;;;3.63;2.97;;;24.40;62.90;;;;;;5081481;28;20199;-70
2021/08/22 10:15:46;;;;;;;5.33;3.20;;;24.40;61.80;;;;;;5106451;28;20200;-68
2021/08/22 10:18:25;;;;;;;3.87;2.83;;;24.40;62.60;;;;;;5107267;28;20211;-67
2021/08/22 10:21:02;;;;;;;5.60;3.30;;;24.40;62.70;;;;;;5077464;28;20200;-69
2021/08/22 10:23:42;;;;;;;4.83;3.50;;;24.30;62.50;;;;;;5104315;28;20228;-70
2021/08/22 10:26:11;;;;;;;7.60;2.87;;;24.30;62.10;;;;;;5084902;28;20640;-72
2021/08/22 10:29:03;;;;;;;5.50;3.03;;;24.40;62.10;;;;;;5103514;28;20511;-71
2021/08/22 10:31:54;;;;;;;3.07;2.50;;;24.40;61.90;;;;;;5079035;28;20915;-67
2021/08/22 10:34:27;;;;;;;5.90;3.10;;;24.40;62.00;;;;;;5101218;28;20189;-67
2021/08/22 10:37:19;;;;;;;4.73;3.00;;;24.40;61.80;;;;;;5096915;28;20201;-67
2021/08/22 10:39:49;;;;;;;5.03;3.00;;;24.40;61.60;;;;;;5094560;28;20288;-67
2021/08/22 10:42:22;;;;;;;3.83;2.53;;;24.40;62.00;;;;;;5093014;28;20250;-69
2021/08/22 10:44:53;;;;;;;4.60;3.33;;;24.40;62.80;;;;;;5094549;28;20189;-71
2021/08/22 10:47:41;;;;;;;5.73;3.37;;;24.40;61.60;;;;;;5103303;28;20216;-70
2021/08/22 10:50:14;;;;;;;4.63;3.67;;;24.40;60.50;;;;;;5065088;28;20607;-72
2021/08/22 10:52:45;;;;;;;5.13;3.37;;;24.40;60.40;;;;;;5101958;28;20531;-73
2021/08/22 10:55:30;;;;;;;3.80;3.13;;;24.50;60.20;;;;;;5075729;28;20243;-70
2021/08/22 10:58:02;;;;;;;4.27;3.50;;;24.50;59.80;;;;;;5081507;28;20541;-71
2021/08/22 11:00:39;;;;;;;5.60;3.27;;;24.50;60.10;;;;;;5097526;28;20208;-75
2021/08/22 11:03:22;;;;;;;4.37;2.83;;;24.50;59.90;;;;;;5099394;28;20209;-73
2021/08/22 11:05:51;;;;;;;5.63;3.10;;;24.50;60.30;;;;;;5102069;28;20273;-72
2021/08/22 11:08:25;;;;;;;5.33;3.20;;;24.60;60.20;;;;;;5102105;28;20254;-71
2021/08/22 11:11:19;;;;;;;4.17;3.23;;;24.60;60.40;;;;;;5100120;28;20634;-70
2021/08/22 11:13:55;;;;;;;6.20;3.53;;;24.70;60.50;;;;;;5104468;28;20246;-74
2021/08/22 11:16:46;;;;;;;4.33;3.53;;;24.70;59.90;;;;;;5068175;28;20605;-71
2021/08/22 11:19:33;;;;;;;5.97;3.20;;;24.70;60.80;;;;;;5092982;28;20201;-70
2021/08/22 11:22:20;;;;;;;4.67;3.20;;;24.70;60.60;;;;;;5103129;28;20228;-70
2021/08/22 11:24:52;;;;;;;6.43;4.00;;;24.70;60.50;;;;;;5091820;28;20528;-70
2021/08/22 11:27:27;;;;;;;5.60;3.47;;;24.80;60.60;;;;;;5081833;28;20624;-70
2021/08/22 11:30:27;;;;;;;6.07;3.30;;;24.80;60.60;;;;;;5099023;28;20271;-69
2021/08/22 11:32:58;;;;;;;6.70;3.70;;;24.90;60.60;;;;;;5077231;28;20207;-70
2021/08/22 11:35:34;;;;;;;6.00;4.03;;;24.90;60.40;;;;;;5053398;28;20284;-70
2021/08/22 11:38:04;;;;;;;6.70;3.63;;;24.90;60.40;;;;;;5084659;28;20200;-73
2021/08/22 11:40:37;;;;;;;4.27;3.53;;;24.90;61.30;;;;;;5087039;28;20206;-72
2021/08/22 11:43:28;;;;;;;5.80;3.83;;;24.90;60.40;;;;;;5097522;28;20246;-72
2021/08/22 11:46:03;;;;;;;5.73;3.77;;;25.00;60.00;;;;;;5088543;28;20207;-71
2021/08/22 11:48:34;;;;;;;4.57;3.10;;;25.00;60.00;;;;;;5097886;28;20258;-72
2021/08/22 11:51:05;;;;;;;5.70;3.97;;;25.00;59.90;;;;;;5101421;28;20647;-71
2021/08/22 11:53:37;;;;;;;6.10;3.60;;;25.00;59.60;;;;;;5081792;28;20216;-70
2021/08/22 11:56:11;;;;;;;18.88;7.30;;;25.00;59.70;;;;;;5088904;28;20483;-72
2021/08/22 11:59:21;;;;;;;9.83;5.07;;;25.00;59.90;;;;;;5111005;28;20193;-70
2021/08/22 12:02:25;;;;;;;10.40;4.73;;;25.10;59.40;;;;;;5078169;28;20193;-72
2021/08/22 12:05:25;;;;;;;8.43;3.83;;;25.10;59.60;;;;;;5105804;28;20275;-70
2021/08/22 12:08:08;;;;;;;4.63;3.53;;;25.20;59.60;;;;;;5099087;28;20204;-73
2021/08/22 12:10:50;;;;;;;8.03;3.20;;;25.10;59.30;;;;;;5103139;28;20246;-71
2021/08/22 12:13:20;;;;;;;5.20;3.27;;;25.20;59.30;;;;;;5103524;28;20208;-72
2021/08/22 12:15:54;;;;;;;4.17;2.90;;;25.20;59.20;;;;;;5084773;28;20193;-71
2021/08/22 12:18:32;;;;;;;6.10;3.10;;;25.20;59.00;;;;;;5101036;28;20236;-72
2021/08/22 12:21:12;;;;;;;4.83;3.10;;;25.20;58.20;;;;;;5081704;28;20197;-70
2021/08/22 12:23:47;;;;;;;6.30;3.10;;;25.20;58.70;;;;;;5098749;28;20239;-70
2021/08/22 12:26:33;;;;;;;4.00;2.93;;;25.30;58.40;;;;;;5080191;27;20207;-73
2021/08/22 12:29:12;;;;;;;3.97;2.60;;;25.20;58.30;;;;;;5105373;28;20273;-72
2021/08/22 12:31:43;;;;;;;4.10;2.60;;;25.30;58.00;;;;;;5100585;28;20215;-70
2021/08/22 12:34:17;;;;;;;4.83;2.50;;;25.30;58.00;;;;;;5089147;28;20196;-71
2021/08/22 12:36:49;;;;;;;3.83;3.00;;;25.30;57.50;;;;;;5091052;28;20196;-69
2021/08/22 12:39:19;;;;;;;6.37;3.03;;;25.30;57.50;;;;;;5095194;28;20653;-68
2021/08/22 12:41:53;;;;;;;6.03;2.80;;;25.30;57.80;;;;;;5088629;28;20325;-69
2021/08/22 12:44:27;;;;;;;4.30;2.70;;;25.30;58.60;;;;;;5088938;28;20242;-70
2021/08/22 12:47:09;;;;;;;4.77;2.80;;;25.30;57.70;;;;;;5062345;28;20208;-70
2021/08/22 12:49:41;;;;;;;3.83;2.87;;;25.30;57.90;;;;;;5103237;27;20203;-68
2021/08/22 12:52:10;;;;;;;4.00;3.00;;;25.30;57.80;;;;;;5108063;28;20715;-68
2021/08/22 12:54:42;;;;;;;4.13;3.17;;;25.30;56.40;;;;;;5102548;28;20701;-69
2021/08/22 12:57:11;;;;;;;3.73;3.00;;;25.30;56.00;;;;;;5075413;28;20204;-68
2021/08/22 12:59:46;;;;;;;3.83;3.07;;;25.30;56.30;;;;;;5104638;28;20200;-68
2021/08/22 13:02:19;;;;;;;3.97;2.87;;;25.40;56.60;;;;;;5103104;28;20196;-66
2021/08/22 13:04:49;;;;;;;5.27;2.97;;;25.30;56.90;;;;;;5096390;28;20196;-67
2021/08/22 13:07:21;;;;;;;3.57;2.97;;;25.40;57.00;;;;;;5096238;28;20197;-69
2021/08/22 13:09:54;;;;;;;3.13;2.40;;;25.40;58.00;;;;;;5106075;27;20196;-69
2021/08/22 13:12:24;;;;;;;5.00;2.93;;;25.40;58.30;;;;;;5102322;28;20197;-67
2021/08/22 13:15:02;;;;;;;3.33;2.90;;;25.40;57.80;;;;;;5103044;28;20271;-67
2021/08/22 13:17:41;;;;;;;4.80;3.40;;;25.30;56.70;;;;;;5103906;28;20200;-68
2021/08/22 13:20:10;;;;;;;4.13;3.40;;;25.40;57.40;;;;;;5099837;27;20219;-69
2021/08/22 13:22:43;;;;;;;2.90;2.60;;;25.40;57.70;;;;;;5108711;27;20246;-68
2021/08/22 13:25:13;;;;;;;3.67;3.00;;;25.40;57.60;;;;;;5109655;28;20184;-66
2021/08/22 13:27:42;;;;;;;3.53;2.90;;;25.40;57.60;;;;;;5068492;28;20212;-66
2021/08/22 13:30:15;;;;;;;3.07;2.77;;;25.40;57.60;;;;;;5093167;28;20204;-67
2021/08/22 13:32:47;;;;;;;3.50;2.70;;;25.40;57.80;;;;;;5103471;27;20207;-67